Time,TemperatureF,DewpointF,PressureIn,WindDirection,WindDirectionDegrees,WindSpeedMPH,WindSpeedGustMPH,Humidity,HourlyPrecipIn,Conditions,Clouds,dailyrainin,SoftwareType,DateUTC
2013-01-22 00:17:00,-6.3,-11.9,29.84,SW,225,0.0,-999.0,76,-99.99,,,0.00,Acu-Link.com,2013-01-22 05:17:00,
2013-01-22 00:32:00,-6.3,-11.9,29.84,SW,225,0.0,-999.0,76,-99.99,,,0.00,Acu-Link.com,2013-01-22 05:32:00,
2013-01-22 00:47:00,-6.3,-11.9,29.84,SW,225,0.0,-999.0,76,-99.99,,,0.00,Acu-Link.com,2013-01-22 05:47:00,
2013-01-22 01:02:00,-6.3,-11.9,29.83,SW,225,0.0,-999.0,76,-99.99,,,0.00,Acu-Link.com,2013-01-22 06:02:00,
2013-01-22 01:18:00,-6.3,-11.9,29.83,SW,225,0.0,-999.0,76,-99.99,,,0.00,Acu-Link.com,2013-01-22 06:18:00,
2013-01-22 01:33:00,-6.3,-11.9,29.83,SW,225,0.0,-999.0,76,-99.99,,,0.00,Acu-Link.com,2013-01-22 06:33:00,
2013-01-22 01:48:00,-6.3,-11.9,29.82,SW,225,0.0,-999.0,76,-99.99,,,0.00,Acu-Link.com,2013-01-22 06:48:00,
2013-01-22 02:03:00,-6.3,-11.9,29.82,SW,225,0.0,-999.0,76,-99.99,,,0.00,Acu-Link.com,2013-01-22 07:03:00,
2013-01-22 02:18:00,-6.3,-11.9,29.83,SW,225,0.0,-999.0,76,-99.99,,,0.00,Acu-Link.com,2013-01-22 07:18:00,
2013-01-22 02:34:00,-6.3,-11.9,29.82,SW,225,0.0,-999.0,76,-99.99,,,0.00,Acu-Link.com,2013-01-22 07:34:00,
2013-01-22 02:49:00,-6.3,-11.9,29.82,SW,225,0.0,-999.0,76,-99.99,,,0.00,Acu-Link.com,2013-01-22 07:49:00,
2013-01-22 03:04:00,-6.3,-11.9,29.83,SW,225,0.0,-999.0,76,-99.99,,,0.00,Acu-Link.com,2013-01-22 08:04:00,
2013-01-22 03:19:00,-6.3,-11.9,29.83,SW,225,0.0,-999.0,76,-99.99,,,0.00,Acu-Link.com,2013-01-22 08:19:00,
2013-01-22 03:34:00,-6.3,-11.9,29.83,SW,225,0.0,-999.0,76,-99.99,,,0.00,Acu-Link.com,2013-01-22 08:34:00,
2013-01-22 03:50:00,-6.3,-11.9,29.83,SW,225,0.0,-999.0,76,-99.99,,,0.00,Acu-Link.com,2013-01-22 08:50:00,
2013-01-22 04:14:00,-6.3,-11.9,29.83,SW,225,0.0,-999.0,76,-99.99,,,0.00,Acu-Link.com,2013-01-22 09:14:00,
2013-01-22 04:29:00,-6.3,-11.9,29.83,SW,225,0.0,-999.0,76,-99.99,,,0.00,Acu-Link.com,2013-01-22 09:29:00,
2013-01-22 04:44:00,-6.3,-11.9,29.83,SW,225,0.0,-999.0,76,-99.99,,,0.00,Acu-Link.com,2013-01-22 09:44:00,
2013-01-22 05:00:00,-6.3,-11.9,29.83,SW,225,0.0,-999.0,76,-99.99,,,0.00,Acu-Link.com,2013-01-22 10:00:00,
2013-01-22 05:15:00,-6.3,-11.9,29.84,SW,225,0.0,-999.0,76,-99.99,,,0.00,Acu-Link.com,2013-01-22 10:15:00,
2013-01-22 05:30:00,-6.3,-11.9,29.85,SW,225,0.0,-999.0,76,-99.99,,,0.00,Acu-Link.com,2013-01-22 10:30:00,
2013-01-22 05:45:00,-6.3,-11.9,29.85,SW,225,0.0,-999.0,76,-99.99,,,0.00,Acu-Link.com,2013-01-22 10:45:00,
2013-01-22 06:00:00,-6.3,-11.9,29.86,SW,225,0.0,-999.0,76,-99.99,,,0.00,Acu-Link.com,2013-01-22 11:00:00,
2013-01-22 06:16:00,-6.3,-11.9,29.86,SW,225,0.0,-999.0,76,-99.99,,,0.00,Acu-Link.com,2013-01-22 11:16:00,
2013-01-22 07:01:00,-8.1,-14.2,29.86,SW,225,0.0,-999.0,74,-99.99,,,0.00,Acu-Link.com,2013-01-22 12:01:00,
2013-01-22 07:16:00,-8.1,-14.2,29.86,SW,225,0.0,-999.0,74,-99.99,,,0.00,Acu-Link.com,2013-01-22 12:16:00,
2013-01-22 07:32:00,-8.1,-14.2,29.87,SW,225,0.0,-999.0,74,-99.99,,,0.00,Acu-Link.com,2013-01-22 12:32:00,
2013-01-22 07:47:00,-8.1,-14.2,29.87,SW,225,0.0,-999.0,74,-99.99,,,0.00,Acu-Link.com,2013-01-22 12:47:00,
2013-01-22 08:02:00,-8.1,-14.2,29.87,SW,225,0.0,-999.0,74,-99.99,,,0.00,Acu-Link.com,2013-01-22 13:02:00,
2013-01-22 08:17:00,-8.1,-14.2,29.88,SW,225,0.0,-999.0,74,-99.99,,,0.00,Acu-Link.com,2013-01-22 13:17:00,
2013-01-22 08:32:00,-8.9,-15.1,29.87,SW,225,0.0,-999.0,73,-99.99,,,0.00,Acu-Link.com,2013-01-22 13:32:00,
2013-01-22 08:48:00,-7.2,-13.6,29.88,SW,225,0.0,-999.0,73,-99.99,,,0.00,Acu-Link.com,2013-01-22 13:48:00,
2013-01-22 09:03:00,-6.0,-12.6,29.88,SW,225,0.0,-999.0,72,-99.99,,,0.00,Acu-Link.com,2013-01-22 14:03:00,
2013-01-22 09:18:00,-3.6,-11.2,29.88,SW,225,0.0,-999.0,69,-99.99,,,0.00,Acu-Link.com,2013-01-22 14:18:00,
2013-01-22 09:33:00,-3.5,-11.6,29.89,SW,225,0.0,-999.0,67,-99.99,,,0.00,Acu-Link.com,2013-01-22 14:33:00,
2013-01-22 09:48:00,-3.5,-11.6,29.90,SW,225,0.0,-999.0,67,-99.99,,,0.00,Acu-Link.com,2013-01-22 14:48:00,
2013-01-22 10:04:00,-3.5,-11.6,29.90,SW,225,0.0,-999.0,67,-99.99,,,0.00,Acu-Link.com,2013-01-22 15:04:00,
2013-01-22 10:19:00,0.5,-9.7,29.90,SW,225,0.0,-999.0,61,-99.99,,,0.00,Acu-Link.com,2013-01-22 15:19:00,
2013-01-22 10:34:00,1.6,-9.4,29.90,SW,225,0.0,-999.0,59,-99.99,,,0.00,Acu-Link.com,2013-01-22 15:34:00,
2013-01-22 10:49:00,0.3,-10.2,29.90,SW,225,0.0,-999.0,60,-99.99,,,0.00,Acu-Link.com,2013-01-22 15:49:00,
2013-01-22 11:04:00,0.3,-10.2,29.89,SW,225,0.0,-999.0,60,-99.99,,,0.00,Acu-Link.com,2013-01-22 16:04:00,
2013-01-22 11:20:00,0.3,-10.2,29.89,SW,225,0.0,-999.0,60,-99.99,,,0.00,Acu-Link.com,2013-01-22 16:20:00,
2013-01-22 11:35:00,0.3,-10.2,29.89,SW,225,0.0,-999.0,60,-99.99,,,0.00,Acu-Link.com,2013-01-22 16:35:00,
2013-01-22 11:50:00,1.9,-9.0,29.88,SW,225,0.0,-999.0,59,-99.99,,,0.00,Acu-Link.com,2013-01-22 16:50:00,
2013-01-22 12:05:00,5.5,-6.0,29.87,SW,225,0.0,-999.0,58,-99.99,,,0.00,Acu-Link.com,2013-01-22 17:05:00,
2013-01-22 12:21:00,5.5,-6.0,29.87,SW,225,0.0,-999.0,58,-99.99,,,0.00,Acu-Link.com,2013-01-22 17:21:00,
2013-01-22 12:36:00,5.5,-6.0,29.86,SW,225,0.0,-999.0,58,-99.99,,,0.00,Acu-Link.com,2013-01-22 17:36:00,
2013-01-22 12:51:00,5.5,-6.0,29.86,SW,225,0.0,-999.0,58,-99.99,,,0.00,Acu-Link.com,2013-01-22 17:51:00,
2013-01-22 13:06:00,5.5,-6.7,29.86,SW,225,2.7,-999.0,56,-99.99,,,0.00,Acu-Link.com,2013-01-22 18:06:00,
2013-01-22 13:21:00,5.2,-6.3,29.86,SW,225,0.0,-999.0,58,-99.99,,,0.00,Acu-Link.com,2013-01-22 18:21:00,
2013-01-22 13:37:00,4.1,-7.4,29.87,SW,225,2.7,-999.0,58,-99.99,,,0.00,Acu-Link.com,2013-01-22 18:37:00,
2013-01-22 13:54:00,2.8,-7.5,29.87,SW,225,2.2,-999.0,61,-99.99,,,0.00,Acu-Link.com,2013-01-22 18:54:00,
2013-01-22 14:09:00,2.3,-8.7,29.88,SW,225,1.6,-999.0,59,-99.99,,,0.00,Acu-Link.com,2013-01-22 19:09:00,
2013-01-22 14:25:00,1.6,-8.4,29.88,SW,225,0.0,-999.0,62,-99.99,,,0.00,Acu-Link.com,2013-01-22 19:25:00,
2013-01-22 14:40:00,3.4,-8.0,29.89,SW,225,3.1,-999.0,58,-99.99,,,0.00,Acu-Link.com,2013-01-22 19:40:00,
2013-01-22 14:55:00,3.4,-8.0,29.89,SW,225,3.1,-999.0,58,-99.99,,,0.00,Acu-Link.com,2013-01-22 19:55:00,
2013-01-22 15:10:00,3.4,-8.0,29.90,SW,225,3.1,-999.0,58,-99.99,,,0.00,Acu-Link.com,2013-01-22 20:10:00,
2013-01-22 15:25:00,3.4,-8.0,29.90,SW,225,3.1,-999.0,58,-99.99,,,0.00,Acu-Link.com,2013-01-22 20:25:00,
2013-01-22 15:41:00,0.7,-8.6,29.91,SW,225,2.2,-999.0,64,-99.99,,,0.00,Acu-Link.com,2013-01-22 20:41:00,
2013-01-22 15:56:00,-0.2,-10.4,29.91,SW,225,2.2,-999.0,61,-99.99,,,0.00,Acu-Link.com,2013-01-22 20:56:00,
2013-01-22 16:11:00,-2.2,-11.0,29.92,SW,225,1.6,-999.0,65,-99.99,,,0.00,Acu-Link.com,2013-01-22 21:11:00,
2013-01-22 16:41:00,-4.2,-13.2,29.94,North,0,2.2,-999.0,64,-99.99,,,0.00,Acu-Link.com,2013-01-22 21:41:00,
2013-01-22 16:57:00,-5.1,-13.5,29.94,North,0,0.0,-999.0,66,-99.99,,,0.00,Acu-Link.com,2013-01-22 21:57:00,
2013-01-22 17:12:00,-5.8,-13.9,29.95,North,0,2.2,-999.0,67,-99.99,,,0.00,Acu-Link.com,2013-01-22 22:12:00,
2013-01-22 17:27:00,-6.0,-13.8,29.97,North,0,0.0,-999.0,68,-99.99,,,0.00,Acu-Link.com,2013-01-22 22:27:00,
2013-01-22 17:42:00,-6.0,-13.8,29.98,North,0,0.0,-999.0,68,-99.99,,,0.00,Acu-Link.com,2013-01-22 22:42:00,
2013-01-22 17:57:00,-7.6,-15.9,29.98,North,0,2.2,-999.0,66,-99.99,,,0.00,Acu-Link.com,2013-01-22 22:57:00,
2013-01-22 18:13:00,-8.0,-16.2,29.98,North,0,0.0,-999.0,66,-99.99,,,0.00,Acu-Link.com,2013-01-22 23:13:00,
2013-01-22 18:28:00,-8.1,-16.7,29.99,North,0,1.1,-999.0,65,-99.99,,,0.00,Acu-Link.com,2013-01-22 23:28:00,
2013-01-22 18:43:00,-8.1,-16.7,29.99,North,0,1.1,-999.0,65,-99.99,,,0.00,Acu-Link.com,2013-01-22 23:43:00,
2013-01-22 18:58:00,-9.2,-18.3,30.00,North,0,1.1,-999.0,63,-99.99,,,0.00,Acu-Link.com,2013-01-22 23:58:00,
2013-01-22 19:13:00,-9.4,-18.5,30.00,North,0,2.2,-999.0,63,-99.99,,,0.00,Acu-Link.com,2013-01-23 00:13:00,
2013-01-22 19:29:00,-10.1,-19.2,30.00,North,0,0.0,-999.0,63,-99.99,,,0.00,Acu-Link.com,2013-01-23 00:29:00,
2013-01-22 19:44:00,-10.3,-19.7,30.00,North,0,1.6,-999.0,62,-99.99,,,0.00,Acu-Link.com,2013-01-23 00:44:00,
2013-01-22 19:59:00,-10.7,-20.0,30.00,North,0,0.0,-999.0,62,-99.99,,,0.00,Acu-Link.com,2013-01-23 00:59:00,
2013-01-22 20:14:00,-11.0,-20.4,30.00,North,0,1.1,-999.0,62,-99.99,,,0.00,Acu-Link.com,2013-01-23 01:14:00,
2013-01-22 20:29:00,-11.0,-20.4,30.00,North,0,1.1,-999.0,62,-99.99,,,0.00,Acu-Link.com,2013-01-23 01:29:00,
2013-01-22 20:45:00,-11.6,-20.6,30.00,North,0,4.3,-999.0,63,-99.99,,,0.00,Acu-Link.com,2013-01-23 01:45:00,
2013-01-22 21:00:00,-12.5,-21.4,30.01,North,0,1.6,-999.0,63,-99.99,,,0.00,Acu-Link.com,2013-01-23 02:00:00,
2013-01-22 21:15:00,-12.8,-21.5,30.01,North,0,0.0,-999.0,64,-99.99,,,0.00,Acu-Link.com,2013-01-23 02:15:00,
2013-01-22 21:45:00,-13.7,-21.5,30.01,North,0,2.2,-999.0,67,-99.99,,,0.00,Acu-Link.com,2013-01-23 02:45:00,
2013-01-22 22:01:00,-13.7,-21.2,30.02,North,0,0.0,-999.0,68,-99.99,,,0.00,Acu-Link.com,2013-01-23 03:01:00,
2013-01-22 22:16:00,-14.1,-21.5,30.02,North,0,1.1,-999.0,68,-99.99,,,0.00,Acu-Link.com,2013-01-23 03:16:00,
2013-01-22 23:17:00,-14.4,-21.9,30.04,North,0,2.2,-999.0,68,-99.99,,,0.00,Acu-Link.com,2013-01-23 04:17:00,
2013-01-22 23:32:00,-14.4,-21.9,30.05,North,0,2.2,-999.0,68,-99.99,,,0.00,Acu-Link.com,2013-01-23 04:32:00,
2013-01-22 23:47:00,-14.4,-21.9,30.05,North,0,2.2,-999.0,68,-99.99,,,0.00,Acu-Link.com,2013-01-23 04:47:00,